sensor_id;sensor_type;location;lat;lon;timestamp;P1;durP1;ratioP1;P2;durP2;ratioP2
50681;SDS011;36779;52.168;20.878;2022-10-20T00:00:07;5.80;;;2.80;;
50681;SDS011;36779;52.168;20.878;2022-10-20T00:02:57;6.40;;;3.00;;
50681;SDS011;36779;52.168;20.878;2022-10-20T00:05:26;11.10;;;3.00;;
50681;SDS011;36779;52.168;20.878;2022-10-20T00:07:54;6.00;;;3.10;;
50681;SDS011;36779;52.168;20.878;2022-10-20T00:10:22;8.90;;;3.10;;
50681;SDS011;36779;52.168;20.878;2022-10-20T00:12:53;9.10;;;3.00;;
50681;SDS011;36779;52.168;20.878;2022-10-20T00:15:21;7.60;;;2.90;;
50681;SDS011;36779;52.168;20.878;2022-10-20T00:17:51;8.10;;;2.90;;
50681;SDS011;36779;52.168;20.878;2022-10-20T00:20:20;10.00;;;3.30;;
50681;SDS011;36779;52.168;20.878;2022-10-20T00:22:48;8.10;;;2.80;;
50681;SDS011;36779;52.168;20.878;2022-10-20T00:25:17;8.60;;;2.90;;
50681;SDS011;36779;52.168;20.878;2022-10-20T00:27:45;10.20;;;3.10;;
50681;SDS011;36779;52.168;20.878;2022-10-20T00:30:15;7.20;;;3.40;;
50681;SDS011;36779;52.168;20.878;2022-10-20T00:32:46;8.80;;;3.40;;
50681;SDS011;36779;52.168;20.878;2022-10-20T00:35:14;6.90;;;3.40;;
50681;SDS011;36779;52.168;20.878;2022-10-20T00:37:43;7.10;;;3.20;;
50681;SDS011;36779;52.168;20.878;2022-10-20T00:40:11;11.90;;;3.30;;
50681;SDS011;36779;52.168;20.878;2022-10-20T00:42:43;7.50;;;2.80;;
50681;SDS011;36779;52.168;20.878;2022-10-20T00:45:12;7.50;;;3.40;;
50681;SDS011;36779;52.168;20.878;2022-10-20T00:47:43;11.60;;;3.30;;
50681;SDS011;36779;52.168;20.878;2022-10-20T00:50:16;9.50;;;3.00;;
50681;SDS011;36779;52.168;20.878;2022-10-20T00:52:48;7.80;;;2.70;;
50681;SDS011;36779;52.168;20.878;2022-10-20T00:55:19;6.20;;;3.20;;
50681;SDS011;36779;52.168;20.878;2022-10-20T00:57:51;7.00;;;3.00;;
50681;SDS011;36779;52.168;20.878;2022-10-20T01:00:22;7.40;;;2.70;;
50681;SDS011;36779;52.168;20.878;2022-10-20T01:02:53;9.50;;;3.40;;
50681;SDS011;36779;52.168;20.878;2022-10-20T01:05:24;8.20;;;3.60;;
50681;SDS011;36779;52.168;20.878;2022-10-20T01:07:53;5.50;;;3.00;;
50681;SDS011;36779;52.168;20.878;2022-10-20T01:10:22;10.70;;;3.70;;
50681;SDS011;36779;52.168;20.878;2022-10-20T01:12:58;8.40;;;3.50;;
50681;SDS011;36779;52.168;20.878;2022-10-20T01:15:33;9.60;;;2.70;;
50681;SDS011;36779;52.168;20.878;2022-10-20T01:18:11;5.80;;;2.60;;
50681;SDS011;36779;52.168;20.878;2022-10-20T01:20:51;8.70;;;3.20;;
50681;SDS011;36779;52.168;20.878;2022-10-20T01:23:47;8.00;;;3.20;;
50681;SDS011;36779;52.168;20.878;2022-10-20T01:29:29;6.40;;;2.70;;
50681;SDS011;36779;52.168;20.878;2022-10-20T01:32:06;5.80;;;2.60;;
50681;SDS011;36779;52.168;20.878;2022-10-20T01:34:40;8.20;;;3.00;;
50681;SDS011;36779;52.168;20.878;2022-10-20T01:37:20;12.50;;;3.20;;
50681;SDS011;36779;52.168;20.878;2022-10-20T01:40:09;7.30;;;3.10;;
50681;SDS011;36779;52.168;20.878;2022-10-20T01:42:43;9.10;;;2.90;;
50681;SDS011;36779;52.168;20.878;2022-10-20T01:45:14;11.00;;;3.20;;
50681;SDS011;36779;52.168;20.878;2022-10-20T01:47:47;8.40;;;2.80;;
50681;SDS011;36779;52.168;20.878;2022-10-20T01:50:19;9.40;;;2.90;;
50681;SDS011;36779;52.168;20.878;2022-10-20T01:52:48;7.70;;;2.60;;
50681;SDS011;36779;52.168;20.878;2022-10-20T01:55:21;8.10;;;2.80;;
50681;SDS011;36779;52.168;20.878;2022-10-20T01:57:57;8.80;;;3.00;;
50681;SDS011;36779;52.168;20.878;2022-10-20T02:00:42;9.10;;;3.40;;
50681;SDS011;36779;52.168;20.878;2022-10-20T02:03:18;5.50;;;2.50;;
50681;SDS011;36779;52.168;20.878;2022-10-20T02:06:04;7.00;;;3.20;;
50681;SDS011;36779;52.168;20.878;2022-10-20T02:08:42;8.90;;;3.50;;
50681;SDS011;36779;52.168;20.878;2022-10-20T02:11:15;8.80;;;2.80;;
50681;SDS011;36779;52.168;20.878;2022-10-20T02:13:51;8.90;;;3.50;;
50681;SDS011;36779;52.168;20.878;2022-10-20T02:16:24;7.70;;;3.10;;
50681;SDS011;36779;52.168;20.878;2022-10-20T02:18:56;6.20;;;2.80;;
50681;SDS011;36779;52.168;20.878;2022-10-20T02:21:31;6.10;;;3.30;;
50681;SDS011;36779;52.168;20.878;2022-10-20T02:23:59;7.30;;;3.30;;
50681;SDS011;36779;52.168;20.878;2022-10-20T02:26:32;6.40;;;3.30;;
50681;SDS011;36779;52.168;20.878;2022-10-20T02:29:03;7.70;;;2.60;;
50681;SDS011;36779;52.168;20.878;2022-10-20T02:31:38;7.10;;;2.80;;
50681;SDS011;36779;52.168;20.878;2022-10-20T02:34:06;5.10;;;2.90;;
50681;SDS011;36779;52.168;20.878;2022-10-20T02:36:37;8.20;;;3.60;;
50681;SDS011;36779;52.168;20.878;2022-10-20T02:39:07;7.00;;;3.60;;
50681;SDS011;36779;52.168;20.878;2022-10-20T02:41:36;6.20;;;3.10;;
50681;SDS011;36779;52.168;20.878;2022-10-20T02:44:05;7.50;;;3.40;;
50681;SDS011;36779;52.168;20.878;2022-10-20T02:46:34;8.60;;;3.00;;
50681;SDS011;36779;52.168;20.878;2022-10-20T02:49:02;10.10;;;3.20;;
50681;SDS011;36779;52.168;20.878;2022-10-20T02:51:30;9.90;;;2.50;;
50681;SDS011;36779;52.168;20.878;2022-10-20T02:53:59;9.50;;;3.50;;
50681;SDS011;36779;52.168;20.878;2022-10-20T02:56:27;10.50;;;3.10;;
50681;SDS011;36779;52.168;20.878;2022-10-20T02:58:57;9.10;;;3.60;;
50681;SDS011;36779;52.168;20.878;2022-10-20T03:01:26;6.50;;;3.10;;
50681;SDS011;36779;52.168;20.878;2022-10-20T03:03:54;10.00;;;3.50;;
50681;SDS011;36779;52.168;20.878;2022-10-20T03:06:25;7.60;;;4.20;;
50681;SDS011;36779;52.168;20.878;2022-10-20T03:08:53;11.10;;;4.40;;
50681;SDS011;36779;52.168;20.878;2022-10-20T03:11:23;6.00;;;3.40;;
50681;SDS011;36779;52.168;20.878;2022-10-20T03:13:54;8.30;;;3.10;;
50681;SDS011;36779;52.168;20.878;2022-10-20T03:16:22;9.00;;;3.90;;
50681;SDS011;36779;52.168;20.878;2022-10-20T03:18:52;7.70;;;3.60;;
50681;SDS011;36779;52.168;20.878;2022-10-20T03:21:21;7.00;;;3.10;;
50681;SDS011;36779;52.168;20.878;2022-10-20T03:23:49;10.40;;;4.00;;
50681;SDS011;36779;52.168;20.878;2022-10-20T03:26:17;12.50;;;4.00;;
50681;SDS011;36779;52.168;20.878;2022-10-20T03:28:46;11.10;;;4.50;;
50681;SDS011;36779;52.168;20.878;2022-10-20T03:31:14;8.40;;;3.90;;
50681;SDS011;36779;52.168;20.878;2022-10-20T03:33:43;7.90;;;4.30;;
50681;SDS011;36779;52.168;20.878;2022-10-20T03:36:11;9.90;;;3.80;;
50681;SDS011;36779;52.168;20.878;2022-10-20T03:38:40;9.80;;;4.70;;
50681;SDS011;36779;52.168;20.878;2022-10-20T03:41:09;10.90;;;4.30;;
50681;SDS011;36779;52.168;20.878;2022-10-20T03:43:38;10.60;;;4.30;;
50681;SDS011;36779;52.168;20.878;2022-10-20T03:46:07;13.30;;;4.50;;
50681;SDS011;36779;52.168;20.878;2022-10-20T03:48:38;8.30;;;3.30;;
50681;SDS011;36779;52.168;20.878;2022-10-20T03:51:07;8.20;;;4.10;;
50681;SDS011;36779;52.168;20.878;2022-10-20T03:53:38;10.70;;;4.50;;
50681;SDS011;36779;52.168;20.878;2022-10-20T03:56:07;8.40;;;4.50;;
50681;SDS011;36779;52.168;20.878;2022-10-20T03:58:37;12.30;;;4.50;;
50681;SDS011;36779;52.168;20.878;2022-10-20T04:01:05;8.60;;;4.40;;
50681;SDS011;36779;52.168;20.878;2022-10-20T04:03:39;13.20;;;5.40;;
50681;SDS011;36779;52.168;20.878;2022-10-20T04:06:07;10.20;;;5.10;;
50681;SDS011;36779;52.168;20.878;2022-10-20T04:08:36;11.10;;;5.30;;
50681;SDS011;36779;52.168;20.878;2022-10-20T04:11:04;12.20;;;4.70;;
50681;SDS011;36779;52.168;20.878;2022-10-20T04:13:33;13.20;;;4.50;;
50681;SDS011;36779;52.168;20.878;2022-10-20T04:16:01;8.70;;;3.80;;
50681;SDS011;36779;52.168;20.878;2022-10-20T04:18:29;9.90;;;4.60;;
50681;SDS011;36779;52.168;20.878;2022-10-20T04:20:58;13.30;;;5.60;;
50681;SDS011;36779;52.168;20.878;2022-10-20T04:23:26;9.80;;;4.70;;
50681;SDS011;36779;52.168;20.878;2022-10-20T04:25:54;11.70;;;5.30;;
50681;SDS011;36779;52.168;20.878;2022-10-20T04:28:23;11.30;;;5.10;;
50681;SDS011;36779;52.168;20.878;2022-10-20T04:30:51;10.80;;;5.30;;
50681;SDS011;36779;52.168;20.878;2022-10-20T04:33:20;15.50;;;6.30;;
50681;SDS011;36779;52.168;20.878;2022-10-20T04:35:48;13.10;;;7.00;;
50681;SDS011;36779;52.168;20.878;2022-10-20T04:38:22;14.30;;;6.10;;
50681;SDS011;36779;52.168;20.878;2022-10-20T04:40:53;15.50;;;6.10;;
50681;SDS011;36779;52.168;20.878;2022-10-20T04:43:26;9.40;;;4.70;;
50681;SDS011;36779;52.168;20.878;2022-10-20T04:45:58;9.40;;;4.70;;
50681;SDS011;36779;52.168;20.878;2022-10-20T04:48:33;13.50;;;5.10;;
50681;SDS011;36779;52.168;20.878;2022-10-20T04:51:03;10.60;;;4.50;;
50681;SDS011;36779;52.168;20.878;2022-10-20T04:53:33;13.90;;;5.40;;
50681;SDS011;36779;52.168;20.878;2022-10-20T04:56:03;13.40;;;5.10;;
50681;SDS011;36779;52.168;20.878;2022-10-20T04:58:33;11.10;;;5.00;;
50681;SDS011;36779;52.168;20.878;2022-10-20T05:01:03;14.10;;;5.90;;
50681;SDS011;36779;52.168;20.878;2022-10-20T05:03:33;11.40;;;5.00;;
50681;SDS011;36779;52.168;20.878;2022-10-20T05:06:10;9.80;;;4.50;;
50681;SDS011;36779;52.168;20.878;2022-10-20T05:08:40;14.20;;;5.70;;
50681;SDS011;36779;52.168;20.878;2022-10-20T05:11:11;13.00;;;4.90;;
50681;SDS011;36779;52.168;20.878;2022-10-20T05:13:40;13.50;;;5.40;;
50681;SDS011;36779;52.168;20.878;2022-10-20T05:16:09;11.70;;;4.60;;
50681;SDS011;36779;52.168;20.878;2022-10-20T05:18:38;17.30;;;5.40;;
50681;SDS011;36779;52.168;20.878;2022-10-20T05:21:08;12.70;;;5.40;;
50681;SDS011;36779;52.168;20.878;2022-10-20T05:23:38;8.40;;;4.60;;
50681;SDS011;36779;52.168;20.878;2022-10-20T05:26:08;13.90;;;5.70;;
50681;SDS011;36779;52.168;20.878;2022-10-20T05:28:38;12.40;;;5.60;;
50681;SDS011;36779;52.168;20.878;2022-10-20T05:31:09;17.60;;;6.50;;
50681;SDS011;36779;52.168;20.878;2022-10-20T05:33:37;17.40;;;7.80;;
50681;SDS011;36779;52.168;20.878;2022-10-20T05:36:10;24.70;;;9.60;;
50681;SDS011;36779;52.168;20.878;2022-10-20T05:38:47;32.40;;;11.40;;
50681;SDS011;36779;52.168;20.878;2022-10-20T05:41:18;30.70;;;10.80;;
50681;SDS011;36779;52.168;20.878;2022-10-20T05:43:47;36.60;;;11.50;;
50681;SDS011;36779;52.168;20.878;2022-10-20T05:46:17;24.70;;;9.00;;
50681;SDS011;36779;52.168;20.878;2022-10-20T05:48:46;35.00;;;10.30;;
50681;SDS011;36779;52.168;20.878;2022-10-20T05:51:15;34.40;;;10.50;;
50681;SDS011;36779;52.168;20.878;2022-10-20T05:53:45;35.90;;;9.80;;
50681;SDS011;36779;52.168;20.878;2022-10-20T05:56:14;32.10;;;9.90;;
50681;SDS011;36779;52.168;20.878;2022-10-20T05:58:44;26.80;;;8.30;;
50681;SDS011;36779;52.168;20.878;2022-10-20T06:01:14;31.70;;;9.50;;
50681;SDS011;36779;52.168;20.878;2022-10-20T06:03:48;19.60;;;8.30;;
50681;SDS011;36779;52.168;20.878;2022-10-20T06:06:18;31.90;;;9.40;;
50681;SDS011;36779;52.168;20.878;2022-10-20T06:08:49;33.60;;;10.70;;
50681;SDS011;36779;52.168;20.878;2022-10-20T06:11:17;31.80;;;9.50;;
50681;SDS011;36779;52.168;20.878;2022-10-20T06:13:47;22.00;;;7.70;;
50681;SDS011;36779;52.168;20.878;2022-10-20T06:16:20;21.50;;;7.30;;
50681;SDS011;36779;52.168;20.878;2022-10-20T06:18:53;23.70;;;8.80;;
50681;SDS011;36779;52.168;20.878;2022-10-20T06:21:24;17.50;;;5.80;;
50681;SDS011;36779;52.168;20.878;2022-10-20T06:23:57;13.30;;;5.50;;
50681;SDS011;36779;52.168;20.878;2022-10-20T06:26:27;22.90;;;9.80;;
50681;SDS011;36779;52.168;20.878;2022-10-20T06:28:59;30.80;;;9.70;;
50681;SDS011;36779;52.168;20.878;2022-10-20T06:31:32;29.20;;;11.20;;
50681;SDS011;36779;52.168;20.878;2022-10-20T06:34:05;30.20;;;9.70;;
50681;SDS011;36779;52.168;20.878;2022-10-20T06:36:36;33.90;;;11.60;;
50681;SDS011;36779;52.168;20.878;2022-10-20T06:39:11;40.60;;;13.50;;
50681;SDS011;36779;52.168;20.878;2022-10-20T06:41:46;30.90;;;10.40;;
50681;SDS011;36779;52.168;20.878;2022-10-20T06:44:18;28.80;;;11.30;;
50681;SDS011;36779;52.168;20.878;2022-10-20T06:46:49;27.70;;;10.00;;
50681;SDS011;36779;52.168;20.878;2022-10-20T06:49:19;33.40;;;11.10;;
50681;SDS011;36779;52.168;20.878;2022-10-20T06:51:49;29.70;;;10.20;;
50681;SDS011;36779;52.168;20.878;2022-10-20T06:54:22;49.00;;;16.50;;
50681;SDS011;36779;52.168;20.878;2022-10-20T06:56:53;37.00;;;11.20;;
50681;SDS011;36779;52.168;20.878;2022-10-20T06:59:25;44.00;;;12.20;;
50681;SDS011;36779;52.168;20.878;2022-10-20T07:02:01;38.70;;;12.70;;
50681;SDS011;36779;52.168;20.878;2022-10-20T07:04:30;39.60;;;13.20;;
50681;SDS011;36779;52.168;20.878;2022-10-20T07:06:59;36.20;;;12.10;;
50681;SDS011;36779;52.168;20.878;2022-10-20T07:09:29;33.80;;;11.40;;
50681;SDS011;36779;52.168;20.878;2022-10-20T07:11:57;33.50;;;11.30;;
50681;SDS011;36779;52.168;20.878;2022-10-20T07:14:27;32.60;;;11.50;;
50681;SDS011;36779;52.168;20.878;2022-10-20T07:17:01;36.20;;;12.50;;
50681;SDS011;36779;52.168;20.878;2022-10-20T07:19:30;31.40;;;11.40;;
50681;SDS011;36779;52.168;20.878;2022-10-20T07:21:58;31.80;;;9.60;;
50681;SDS011;36779;52.168;20.878;2022-10-20T07:24:28;32.50;;;12.00;;
50681;SDS011;36779;52.168;20.878;2022-10-20T07:26:57;32.70;;;13.40;;
50681;SDS011;36779;52.168;20.878;2022-10-20T07:29:25;34.40;;;12.30;;
50681;SDS011;36779;52.168;20.878;2022-10-20T07:32:01;31.40;;;10.20;;
50681;SDS011;36779;52.168;20.878;2022-10-20T07:34:30;30.50;;;11.10;;
50681;SDS011;36779;52.168;20.878;2022-10-20T07:36:58;30.50;;;11.30;;
50681;SDS011;36779;52.168;20.878;2022-10-20T07:39:28;33.70;;;12.30;;
50681;SDS011;36779;52.168;20.878;2022-10-20T07:41:57;28.30;;;10.90;;
50681;SDS011;36779;52.168;20.878;2022-10-20T07:44:26;34.30;;;11.90;;
50681;SDS011;36779;52.168;20.878;2022-10-20T07:47:00;30.20;;;13.20;;
50681;SDS011;36779;52.168;20.878;2022-10-20T07:49:30;35.10;;;12.70;;
50681;SDS011;36779;52.168;20.878;2022-10-20T07:52:11;32.00;;;13.40;;
50681;SDS011;36779;52.168;20.878;2022-10-20T07:54:42;35.60;;;12.90;;
50681;SDS011;36779;52.168;20.878;2022-10-20T07:57:11;32.90;;;11.60;;
50681;SDS011;36779;52.168;20.878;2022-10-20T08:02:41;32.60;;;11.80;;
50681;SDS011;36779;52.168;20.878;2022-10-20T08:05:11;30.70;;;13.10;;
50681;SDS011;36779;52.168;20.878;2022-10-20T08:07:40;35.80;;;13.20;;
50681;SDS011;36779;52.168;20.878;2022-10-20T08:10:10;28.60;;;9.90;;
50681;SDS011;36779;52.168;20.878;2022-10-20T08:12:39;23.50;;;10.20;;
50681;SDS011;36779;52.168;20.878;2022-10-20T08:15:08;17.70;;;7.00;;
50681;SDS011;36779;52.168;20.878;2022-10-20T08:17:40;26.10;;;10.10;;
50681;SDS011;36779;52.168;20.878;2022-10-20T08:20:09;28.70;;;11.10;;
50681;SDS011;36779;52.168;20.878;2022-10-20T08:22:44;29.80;;;12.30;;
50681;SDS011;36779;52.168;20.878;2022-10-20T08:25:13;33.30;;;12.90;;
50681;SDS011;36779;52.168;20.878;2022-10-20T08:27:41;27.90;;;11.70;;
50681;SDS011;36779;52.168;20.878;2022-10-20T08:30:10;34.20;;;13.90;;
50681;SDS011;36779;52.168;20.878;2022-10-20T08:32:50;38.20;;;13.40;;
50681;SDS011;36779;52.168;20.878;2022-10-20T08:35:19;40.10;;;14.80;;
50681;SDS011;36779;52.168;20.878;2022-10-20T08:37:48;46.70;;;15.50;;
50681;SDS011;36779;52.168;20.878;2022-10-20T08:40:19;45.00;;;13.60;;
50681;SDS011;36779;52.168;20.878;2022-10-20T08:42:51;42.10;;;13.60;;
50681;SDS011;36779;52.168;20.878;2022-10-20T08:45:21;54.80;;;17.60;;
50681;SDS011;36779;52.168;20.878;2022-10-20T08:47:51;56.60;;;17.90;;
50681;SDS011;36779;52.168;20.878;2022-10-20T08:50:23;48.90;;;17.30;;
50681;SDS011;36779;52.168;20.878;2022-10-20T08:52:55;52.60;;;17.90;;
50681;SDS011;36779;52.168;20.878;2022-10-20T08:55:27;43.20;;;16.10;;
50681;SDS011;36779;52.168;20.878;2022-10-20T08:57:59;52.60;;;16.10;;
50681;SDS011;36779;52.168;20.878;2022-10-20T09:00:30;51.00;;;18.10;;
50681;SDS011;36779;52.168;20.878;2022-10-20T09:03:01;54.10;;;17.60;;
50681;SDS011;36779;52.168;20.878;2022-10-20T09:08:19;43.50;;;13.50;;
50681;SDS011;36779;52.168;20.878;2022-10-20T09:10:52;42.20;;;16.10;;
50681;SDS011;36779;52.168;20.878;2022-10-20T09:13:22;43.60;;;16.80;;
50681;SDS011;36779;52.168;20.878;2022-10-20T09:15:56;47.20;;;16.50;;
50681;SDS011;36779;52.168;20.878;2022-10-20T09:18:29;47.30;;;17.20;;
50681;SDS011;36779;52.168;20.878;2022-10-20T09:20:59;43.70;;;15.60;;
50681;SDS011;36779;52.168;20.878;2022-10-20T09:23:34;49.00;;;16.20;;
50681;SDS011;36779;52.168;20.878;2022-10-20T09:26:13;40.00;;;17.30;;
50681;SDS011;36779;52.168;20.878;2022-10-20T09:29:03;42.50;;;16.00;;
50681;SDS011;36779;52.168;20.878;2022-10-20T09:31:42;36.60;;;15.20;;
50681;SDS011;36779;52.168;20.878;2022-10-20T09:34:19;40.10;;;16.10;;
50681;SDS011;36779;52.168;20.878;2022-10-20T09:36:49;32.20;;;13.90;;
50681;SDS011;36779;52.168;20.878;2022-10-20T09:39:20;27.10;;;11.60;;
50681;SDS011;36779;52.168;20.878;2022-10-20T09:41:57;22.30;;;11.00;;
50681;SDS011;36779;52.168;20.878;2022-10-20T09:44:30;20.50;;;10.10;;
50681;SDS011;36779;52.168;20.878;2022-10-20T09:47:02;25.00;;;10.30;;
50681;SDS011;36779;52.168;20.878;2022-10-20T09:49:31;23.90;;;11.00;;
50681;SDS011;36779;52.168;20.878;2022-10-20T09:52:03;22.30;;;11.50;;
50681;SDS011;36779;52.168;20.878;2022-10-20T09:54:45;15.50;;;8.00;;
50681;SDS011;36779;52.168;20.878;2022-10-20T09:57:16;17.80;;;9.80;;
50681;SDS011;36779;52.168;20.878;2022-10-20T09:59:47;17.70;;;9.50;;
50681;SDS011;36779;52.168;20.878;2022-10-20T10:02:31;14.50;;;7.50;;
50681;SDS011;36779;52.168;20.878;2022-10-20T10:05:13;14.30;;;7.20;;
50681;SDS011;36779;52.168;20.878;2022-10-20T10:07:45;13.00;;;7.50;;
50681;SDS011;36779;52.168;20.878;2022-10-20T10:10:25;13.00;;;6.50;;
50681;SDS011;36779;52.168;20.878;2022-10-20T10:12:56;10.30;;;5.70;;
50681;SDS011;36779;52.168;20.878;2022-10-20T10:15:29;11.10;;;5.60;;
50681;SDS011;36779;52.168;20.878;2022-10-20T10:17:59;11.30;;;5.80;;
50681;SDS011;36779;52.168;20.878;2022-10-20T10:20:41;10.10;;;5.50;;
50681;SDS011;36779;52.168;20.878;2022-10-20T10:23:24;11.20;;;4.90;;
50681;SDS011;36779;52.168;20.878;2022-10-20T10:25:57;11.10;;;5.00;;
50681;SDS011;36779;52.168;20.878;2022-10-20T10:28:31;12.00;;;4.70;;
50681;SDS011;36779;52.168;20.878;2022-10-20T10:31:07;10.40;;;5.00;;
50681;SDS011;36779;52.168;20.878;2022-10-20T10:33:45;7.00;;;4.20;;
50681;SDS011;36779;52.168;20.878;2022-10-20T10:36:20;7.40;;;4.20;;
50681;SDS011;36779;52.168;20.878;2022-10-20T10:38:55;7.20;;;4.20;;
50681;SDS011;36779;52.168;20.878;2022-10-20T10:44:17;7.60;;;3.80;;
50681;SDS011;36779;52.168;20.878;2022-10-20T10:50:00;4.90;;;2.60;;
50681;SDS011;36779;52.168;20.878;2022-10-20T10:52:53;6.50;;;2.60;;
50681;SDS011;36779;52.168;20.878;2022-10-20T10:55:37;4.80;;;2.20;;
50681;SDS011;36779;52.168;20.878;2022-10-20T10:58:19;4.10;;;1.90;;
50681;SDS011;36779;52.168;20.878;2022-10-20T11:01:02;5.10;;;1.80;;
50681;SDS011;36779;52.168;20.878;2022-10-20T11:03:50;2.70;;;1.50;;
50681;SDS011;36779;52.168;20.878;2022-10-20T11:06:32;5.70;;;1.60;;
50681;SDS011;36779;52.168;20.878;2022-10-20T11:09:10;4.00;;;1.30;;
50681;SDS011;36779;52.168;20.878;2022-10-20T11:11:50;3.60;;;1.40;;
50681;SDS011;36779;52.168;20.878;2022-10-20T11:14:33;2.60;;;1.20;;
50681;SDS011;36779;52.168;20.878;2022-10-20T11:17:18;4.50;;;1.20;;
50681;SDS011;36779;52.168;20.878;2022-10-20T11:20:03;2.80;;;1.00;;
50681;SDS011;36779;52.168;20.878;2022-10-20T11:22:44;1.50;;;0.70;;
50681;SDS011;36779;52.168;20.878;2022-10-20T11:25:25;2.40;;;1.00;;
50681;SDS011;36779;52.168;20.878;2022-10-20T11:27:59;2.80;;;1.20;;
50681;SDS011;36779;52.168;20.878;2022-10-20T11:30:28;3.10;;;1.00;;
50681;SDS011;36779;52.168;20.878;2022-10-20T11:33:00;3.40;;;0.90;;
50681;SDS011;36779;52.168;20.878;2022-10-20T11:35:41;2.90;;;0.90;;
50681;SDS011;36779;52.168;20.878;2022-10-20T11:38:17;3.40;;;0.70;;
50681;SDS011;36779;52.168;20.878;2022-10-20T11:40:53;10.40;;;2.10;;
50681;SDS011;36779;52.168;20.878;2022-10-20T11:43:28;2.20;;;0.70;;
50681;SDS011;36779;52.168;20.878;2022-10-20T11:46:02;2.70;;;0.80;;
50681;SDS011;36779;52.168;20.878;2022-10-20T11:48:33;3.00;;;1.20;;
50681;SDS011;36779;52.168;20.878;2022-10-20T11:51:18;3.00;;;1.00;;
50681;SDS011;36779;52.168;20.878;2022-10-20T11:54:10;4.60;;;1.20;;
50681;SDS011;36779;52.168;20.878;2022-10-20T11:56:56;2.70;;;0.80;;
50681;SDS011;36779;52.168;20.878;2022-10-20T12:02:45;2.50;;;0.90;;
50681;SDS011;36779;52.168;20.878;2022-10-20T12:05:42;3.20;;;0.80;;
50681;SDS011;36779;52.168;20.878;2022-10-20T12:08:40;0.70;;;0.50;;
50681;SDS011;36779;52.168;20.878;2022-10-20T12:11:19;2.30;;;0.80;;
50681;SDS011;36779;52.168;20.878;2022-10-20T12:13:59;1.20;;;0.50;;
50681;SDS011;36779;52.168;20.878;2022-10-20T12:19:32;1.30;;;0.60;;
50681;SDS011;36779;52.168;20.878;2022-10-20T12:22:02;2.60;;;0.80;;
50681;SDS011;36779;52.168;20.878;2022-10-20T12:24:35;2.90;;;0.80;;
50681;SDS011;36779;52.168;20.878;2022-10-20T12:29:55;0.70;;;0.40;;
50681;SDS011;36779;52.168;20.878;2022-10-20T12:35:29;4.20;;;0.60;;
50681;SDS011;36779;52.168;20.878;2022-10-20T12:38:19;1.50;;;0.50;;
50681;SDS011;36779;52.168;20.878;2022-10-20T12:40:51;1.00;;;0.50;;
50681;SDS011;36779;52.168;20.878;2022-10-20T12:43:26;1.80;;;0.40;;
50681;SDS011;36779;52.168;20.878;2022-10-20T12:46:02;0.70;;;0.40;;
50681;SDS011;36779;52.168;20.878;2022-10-20T12:48:38;1.40;;;0.60;;
50681;SDS011;36779;52.168;20.878;2022-10-20T12:51:16;0.90;;;0.40;;
50681;SDS011;36779;52.168;20.878;2022-10-20T12:53:54;1.70;;;0.30;;
50681;SDS011;36779;52.168;20.878;2022-10-20T12:56:30;0.70;;;0.30;;
50681;SDS011;36779;52.168;20.878;2022-10-20T12:59:23;1.10;;;0.50;;
50681;SDS011;36779;52.168;20.878;2022-10-20T13:05:47;2.50;;;0.70;;
50681;SDS011;36779;52.168;20.878;2022-10-20T13:08:23;2.40;;;0.80;;
50681;SDS011;36779;52.168;20.878;2022-10-20T13:10:53;2.30;;;0.60;;
50681;SDS011;36779;52.168;20.878;2022-10-20T13:16:18;1.60;;;0.60;;
50681;SDS011;36779;52.168;20.878;2022-10-20T13:18:52;1.10;;;0.90;;
50681;SDS011;36779;52.168;20.878;2022-10-20T13:21:24;1.10;;;0.60;;
50681;SDS011;36779;52.168;20.878;2022-10-20T13:24:02;1.20;;;0.60;;
50681;SDS011;36779;52.168;20.878;2022-10-20T13:26:46;0.90;;;0.50;;
50681;SDS011;36779;52.168;20.878;2022-10-20T13:29:19;1.30;;;0.70;;
50681;SDS011;36779;52.168;20.878;2022-10-20T13:32:05;1.60;;;0.30;;
50681;SDS011;36779;52.168;20.878;2022-10-20T13:34:42;1.10;;;0.50;;
50681;SDS011;36779;52.168;20.878;2022-10-20T13:37:25;1.60;;;0.60;;
50681;SDS011;36779;52.168;20.878;2022-10-20T13:40:10;1.50;;;0.70;;
50681;SDS011;36779;52.168;20.878;2022-10-20T13:43:03;1.80;;;0.40;;
50681;SDS011;36779;52.168;20.878;2022-10-20T13:45:48;2.00;;;0.40;;
50681;SDS011;36779;52.168;20.878;2022-10-20T13:48:33;1.90;;;0.60;;
50681;SDS011;36779;52.168;20.878;2022-10-20T13:51:12;0.60;;;0.30;;
50681;SDS011;36779;52.168;20.878;2022-10-20T13:53:47;1.00;;;0.50;;
50681;SDS011;36779;52.168;20.878;2022-10-20T13:56:20;0.80;;;0.50;;
50681;SDS011;36779;52.168;20.878;2022-10-20T13:59:02;3.40;;;1.20;;
50681;SDS011;36779;52.168;20.878;2022-10-20T14:01:34;2.70;;;0.50;;
50681;SDS011;36779;52.168;20.878;2022-10-20T14:04:13;1.60;;;1.00;;
50681;SDS011;36779;52.168;20.878;2022-10-20T14:06:49;4.50;;;0.60;;
50681;SDS011;36779;52.168;20.878;2022-10-20T14:09:18;5.70;;;0.80;;
50681;SDS011;36779;52.168;20.878;2022-10-20T14:11:49;1.50;;;0.60;;
50681;SDS011;36779;52.168;20.878;2022-10-20T14:14:24;2.40;;;0.50;;
50681;SDS011;36779;52.168;20.878;2022-10-20T14:16:56;2.10;;;0.60;;
50681;SDS011;36779;52.168;20.878;2022-10-20T14:19:27;1.70;;;0.60;;
50681;SDS011;36779;52.168;20.878;2022-10-20T14:22:09;2.50;;;0.70;;
50681;SDS011;36779;52.168;20.878;2022-10-20T14:24:43;1.40;;;0.50;;
50681;SDS011;36779;52.168;20.878;2022-10-20T14:27:16;3.00;;;0.60;;
50681;SDS011;36779;52.168;20.878;2022-10-20T14:29:47;1.40;;;0.60;;
50681;SDS011;36779;52.168;20.878;2022-10-20T14:32:19;1.00;;;0.50;;
50681;SDS011;36779;52.168;20.878;2022-10-20T14:34:53;3.10;;;1.10;;
50681;SDS011;36779;52.168;20.878;2022-10-20T14:37:26;1.90;;;0.60;;
50681;SDS011;36779;52.168;20.878;2022-10-20T14:39:59;1.20;;;0.60;;
50681;SDS011;36779;52.168;20.878;2022-10-20T14:42:29;1.50;;;0.70;;
50681;SDS011;36779;52.168;20.878;2022-10-20T14:45:00;5.50;;;0.90;;
50681;SDS011;36779;52.168;20.878;2022-10-20T14:47:33;1.00;;;0.70;;
50681;SDS011;36779;52.168;20.878;2022-10-20T14:50:15;5.50;;;0.70;;
50681;SDS011;36779;52.168;20.878;2022-10-20T14:52:48;1.10;;;0.60;;
50681;SDS011;36779;52.168;20.878;2022-10-20T14:55:31;4.10;;;1.50;;
50681;SDS011;36779;52.168;20.878;2022-10-20T14:58:03;5.10;;;1.50;;
50681;SDS011;36779;52.168;20.878;2022-10-20T15:00:48;1.80;;;1.10;;
50681;SDS011;36779;52.168;20.878;2022-10-20T15:03:17;2.70;;;1.00;;
50681;SDS011;36779;52.168;20.878;2022-10-20T15:05:45;1.90;;;0.90;;
50681;SDS011;36779;52.168;20.878;2022-10-20T15:08:22;1.90;;;0.80;;
50681;SDS011;36779;52.168;20.878;2022-10-20T15:10:54;2.60;;;1.00;;
50681;SDS011;36779;52.168;20.878;2022-10-20T15:13:25;1.80;;;0.70;;
50681;SDS011;36779;52.168;20.878;2022-10-20T15:15:57;4.40;;;0.70;;
50681;SDS011;36779;52.168;20.878;2022-10-20T15:18:27;4.80;;;0.80;;
50681;SDS011;36779;52.168;20.878;2022-10-20T15:20:57;2.40;;;0.70;;
50681;SDS011;36779;52.168;20.878;2022-10-20T15:23:26;2.50;;;0.80;;
50681;SDS011;36779;52.168;20.878;2022-10-20T15:25:57;5.00;;;0.90;;
50681;SDS011;36779;52.168;20.878;2022-10-20T15:28:30;3.40;;;1.30;;
50681;SDS011;36779;52.168;20.878;2022-10-20T15:31:06;2.90;;;1.20;;
50681;SDS011;36779;52.168;20.878;2022-10-20T15:33:46;3.00;;;1.30;;